SEATTLE-TACOMA INTL

KSEA (SEA)
Seattle, Washington
Towered

Vatsim Metar:
KSEA 111053Z 13006KT 2 1/2SM SCT008 OVC015 07/06 A3004 RMK AO2 SFC VIS 7 SLP181 T00720056 $

No ATC Online

Traffic

Inbound:
None
Outbound:
Ident
Type
Name
Destination
Phase
ASA746
B739/L
Cyrille de Lattre UUEE
KATL
Taxiing Out